createdAt,value
2018-07-14T00:00:14.500Z,93.77
2018-07-14T00:01:14.518Z,94.45
2018-07-14T00:02:14.538Z,94.31
2018-07-14T00:03:14.543Z,94.31
2018-07-14T00:04:15.584Z,94.59
2018-07-14T00:05:14.602Z,94.59
2018-07-14T00:06:14.624Z,94.49
2018-07-14T00:07:14.637Z,94.21
2018-07-14T00:08:14.682Z,95.26
2018-07-14T00:09:14.665Z,94.40
2018-07-14T00:10:14.708Z,95.07
2018-07-14T00:11:14.736Z,94.79
2018-07-14T00:12:14.745Z,95.26
2018-07-14T00:13:14.803Z,95.75
2018-07-14T00:14:14.809Z,95.26
2018-07-14T00:15:14.798Z,96.32
2018-07-14T00:16:14.828Z,96.13
2018-07-14T00:17:14.844Z,96.22
2018-07-14T00:18:14.868Z,96.03
2018-07-14T00:19:14.896Z,96.03
2018-07-14T00:20:14.919Z,95.65
2018-07-14T00:21:14.928Z,96.22
2018-07-14T00:22:14.959Z,96.03
2018-07-14T00:23:14.971Z,96.03
2018-07-14T00:24:15.012Z,95.75
2018-07-14T00:25:15.023Z,95.84
2018-07-14T00:26:15.060Z,96.13
2018-07-14T00:27:15.066Z,96.22
2018-07-14T00:28:15.097Z,96.32
2018-07-14T00:29:15.101Z,96.22
2018-07-14T00:30:15.142Z,96.70
2018-07-14T00:31:15.161Z,96.89
2018-07-14T00:32:15.184Z,96.80
2018-07-14T00:33:15.183Z,96.85
2018-07-14T00:34:15.233Z,96.94
2018-07-14T00:35:15.232Z,96.85
2018-07-14T00:36:15.264Z,97.04
2018-07-14T00:37:15.268Z,97.86
2018-07-14T00:38:15.287Z,97.23
2018-07-14T00:39:15.317Z,97.90
2018-07-14T00:40:15.342Z,97.52
2018-07-14T00:41:15.370Z,97.52
2018-07-14T00:42:15.394Z,97.71
2018-07-14T00:43:15.400Z,97.61
2018-07-14T00:44:15.429Z,97.71
2018-07-14T00:45:15.445Z,97.90
2018-07-14T00:46:15.458Z,98.28
2018-07-14T00:47:15.492Z,98.38
2018-07-14T00:48:15.513Z,98.48
2018-07-14T00:49:15.538Z,98.67
2018-07-14T00:50:15.552Z,98.77
2018-07-14T00:51:15.555Z,98.77
2018-07-14T00:52:15.593Z,98.67
2018-07-14T00:53:15.608Z,99.05
2018-07-14T00:54:15.655Z,99.24
2018-07-14T00:55:15.665Z,99.05
2018-07-14T00:56:15.680Z,98.67
2018-07-14T00:57:15.699Z,98.86
2018-07-14T00:58:15.727Z,99.44
2018-07-14T00:59:15.726Z,99.15
2018-07-14T01:00:15.748Z,99.34
2018-07-14T01:01:15.773Z,99.34
2018-07-14T01:02:15.802Z,99.39
2018-07-14T01:03:15.823Z,99.58
2018-07-14T01:04:15.860Z,99.96
2018-07-14T01:05:15.854Z,99.68
2018-07-14T01:06:16.026Z,99.58
2018-07-14T01:07:15.980Z,99.99
2018-07-14T01:08:15.992Z,99.77
2018-07-14T01:09:16.096Z,99.99
2018-07-14T01:10:15.974Z,99.99
2018-07-14T01:11:15.997Z,99.77
2018-07-14T01:12:16.013Z,99.77
2018-07-14T01:13:16.027Z,99.99
2018-07-14T01:14:16.045Z,99.99
2018-07-14T01:15:16.065Z,99.99
2018-07-14T01:16:16.108Z,99.99
2018-07-14T01:17:16.134Z,99.99
2018-07-14T01:18:16.150Z,99.99
2018-07-14T01:19:16.165Z,99.99
2018-07-14T01:20:16.196Z,99.99
2018-07-14T01:21:16.194Z,99.99
2018-07-14T01:22:16.242Z,99.99
2018-07-14T01:23:16.240Z,99.99
2018-07-14T01:24:16.275Z,99.99
2018-07-14T01:25:16.267Z,99.99
2018-07-14T01:26:16.301Z,99.99
2018-07-14T01:27:16.306Z,99.99
2018-07-14T01:28:16.351Z,99.99
2018-07-14T01:29:16.553Z,99.99
2018-07-14T01:30:16.381Z,99.99
2018-07-14T01:31:16.402Z,99.99
2018-07-14T01:32:16.456Z,99.99
2018-07-14T01:33:16.445Z,99.99
2018-07-14T01:34:16.474Z,99.99
2018-07-14T01:35:16.489Z,99.99
2018-07-14T01:36:16.521Z,99.99
2018-07-14T01:37:16.544Z,99.99
2018-07-14T01:38:16.554Z,99.99
2018-07-14T01:39:16.578Z,99.99
2018-07-14T01:40:16.613Z,99.99
2018-07-14T01:41:16.607Z,99.99
2018-07-14T01:42:16.634Z,99.99
2018-07-14T01:43:16.650Z,99.99
2018-07-14T01:44:16.682Z,99.99
2018-07-14T01:45:16.706Z,99.99
2018-07-14T01:46:16.710Z,99.99
2018-07-14T01:47:16.763Z,99.99
2018-07-14T01:48:16.754Z,99.99
2018-07-14T01:49:16.765Z,99.99
2018-07-14T01:50:16.812Z,99.99
2018-07-14T01:51:16.834Z,99.99
2018-07-14T01:52:16.856Z,99.99
2018-07-14T01:53:16.866Z,99.99
2018-07-14T01:54:16.880Z,99.99
2018-07-14T01:55:16.914Z,99.99
2018-07-14T01:56:16.929Z,99.99
2018-07-14T01:57:16.949Z,99.99
2018-07-14T01:58:16.966Z,99.99
2018-07-14T01:59:16.996Z,99.99
2018-07-14T02:00:17.022Z,99.99
2018-07-14T02:01:17.010Z,99.99
2018-07-14T02:02:17.069Z,99.99
2018-07-14T02:03:17.062Z,99.99
2018-07-14T02:04:17.082Z,99.99
2018-07-14T02:05:17.097Z,99.99
2018-07-14T02:06:17.147Z,99.99
2018-07-14T02:07:17.145Z,99.99
2018-07-14T02:08:17.169Z,99.99
2018-07-14T02:09:17.183Z,99.99
2018-07-14T02:10:17.208Z,99.99
2018-07-14T02:11:17.242Z,99.99
2018-07-14T02:12:17.269Z,99.99
2018-07-14T02:13:17.272Z,99.99
2018-07-14T02:14:17.293Z,99.99
2018-07-14T02:15:17.316Z,99.99
2018-07-14T02:16:17.347Z,99.99
2018-07-14T02:17:17.340Z,99.99
2018-07-14T02:18:17.373Z,99.99
2018-07-14T02:19:17.380Z,99.99
2018-07-14T02:20:17.425Z,99.99
2018-07-14T02:21:17.437Z,99.99
2018-07-14T02:22:17.459Z,99.99
2018-07-14T02:23:17.499Z,99.99
2018-07-14T02:24:17.507Z,99.99
2018-07-14T02:25:17.517Z,99.99
2018-07-14T02:26:17.546Z,99.99
2018-07-14T02:27:17.562Z,99.99
2018-07-14T02:28:17.575Z,99.99
2018-07-14T02:29:17.604Z,99.99
2018-07-14T02:30:17.631Z,99.99
2018-07-14T02:31:17.637Z,99.99
2018-07-14T02:32:17.660Z,99.99
2018-07-14T02:33:17.689Z,99.99
2018-07-14T02:34:17.705Z,99.99
2018-07-14T02:35:17.724Z,99.99
2018-07-14T02:36:17.747Z,99.99
2018-07-14T02:37:17.767Z,99.99
2018-07-14T02:38:17.780Z,99.99
2018-07-14T02:39:17.816Z,99.99
2018-07-14T02:40:17.839Z,99.99
2018-07-14T02:41:17.856Z,99.99
2018-07-14T02:42:17.872Z,99.99
2018-07-14T02:43:17.900Z,99.99
2018-07-14T02:44:17.911Z,99.99
2018-07-14T02:45:17.918Z,99.99
2018-07-14T02:46:17.946Z,99.99
2018-07-14T02:47:17.961Z,99.99
2018-07-14T02:48:17.986Z,99.99
2018-07-14T02:49:18.020Z,99.99
2018-07-14T02:50:18.059Z,99.99
2018-07-14T02:51:18.077Z,99.99
2018-07-14T02:52:18.097Z,99.99
2018-07-14T02:53:18.093Z,99.99
2018-07-14T02:54:18.121Z,99.99
2018-07-14T02:55:18.139Z,99.99
2018-07-14T02:56:18.160Z,99.99
2018-07-14T02:57:18.185Z,99.99
2018-07-14T02:58:18.238Z,99.99
2018-07-14T02:59:18.224Z,99.99
2018-07-14T03:00:18.232Z,99.99
2018-07-14T03:01:18.258Z,99.99
2018-07-14T03:02:18.279Z,99.99
2018-07-14T03:03:18.291Z,99.99
2018-07-14T03:04:18.325Z,99.99
2018-07-14T03:05:18.345Z,99.99
2018-07-14T03:06:18.353Z,99.99
2018-07-14T03:07:18.381Z,99.99
2018-07-14T03:08:18.418Z,99.99
2018-07-14T03:09:18.414Z,99.99
2018-07-14T03:10:18.448Z,99.99
2018-07-14T03:11:18.457Z,99.99
2018-07-14T03:12:18.485Z,99.99
2018-07-14T03:13:18.507Z,99.99
2018-07-14T03:14:18.552Z,99.99
2018-07-14T03:15:18.547Z,99.99
2018-07-14T03:16:18.566Z,99.99
2018-07-14T03:17:18.572Z,99.99
2018-07-14T03:18:18.614Z,99.99
2018-07-14T03:19:18.649Z,99.99
2018-07-14T03:20:18.640Z,99.99
2018-07-14T03:21:18.682Z,99.99
2018-07-14T03:22:18.735Z,99.99
2018-07-14T03:23:18.709Z,99.99
2018-07-14T03:24:18.718Z,99.99
2018-07-14T03:25:18.761Z,99.99
2018-07-14T03:26:18.760Z,99.99
2018-07-14T03:27:18.797Z,99.99
2018-07-14T03:28:18.828Z,99.99
2018-07-14T03:29:18.818Z,99.99
2018-07-14T03:30:18.856Z,99.99
2018-07-14T03:31:18.862Z,99.99
2018-07-14T03:32:18.906Z,99.99
2018-07-14T03:33:18.935Z,99.99
2018-07-14T03:34:18.933Z,99.99
2018-07-14T03:35:18.981Z,99.99
2018-07-14T03:36:18.969Z,99.99
2018-07-14T03:37:19.010Z,99.99
2018-07-14T03:38:19.017Z,99.99
2018-07-14T03:39:19.021Z,99.99
2018-07-14T03:40:19.077Z,99.99
2018-07-14T03:41:19.087Z,99.99
2018-07-14T03:42:19.091Z,99.99
2018-07-14T03:43:19.111Z,99.99
2018-07-14T03:44:19.139Z,99.99
2018-07-14T03:45:19.143Z,99.99
2018-07-14T03:46:19.171Z,99.99
2018-07-14T03:47:19.180Z,99.99
2018-07-14T03:48:19.227Z,99.99
2018-07-14T03:49:19.244Z,99.99
2018-07-14T03:50:19.288Z,99.99
2018-07-14T03:51:19.260Z,99.99
2018-07-14T03:52:19.331Z,99.99
2018-07-14T03:53:19.301Z,99.99
2018-07-14T03:54:19.317Z,99.99
2018-07-14T03:55:19.365Z,99.99
2018-07-14T03:56:19.380Z,99.99
2018-07-14T03:57:19.383Z,99.99
2018-07-14T03:58:19.428Z,99.99
2018-07-14T03:59:19.419Z,99.99
2018-07-14T04:00:19.446Z,99.99
2018-07-14T04:01:19.472Z,99.99
2018-07-14T04:02:19.515Z,99.99
2018-07-14T04:03:19.518Z,99.99
2018-07-14T04:04:19.528Z,99.99
2018-07-14T04:05:19.558Z,99.99
2018-07-14T04:06:19.583Z,99.99
2018-07-14T04:07:19.587Z,99.99
2018-07-14T04:08:19.612Z,99.99
2018-07-14T04:09:19.643Z,99.99
2018-07-14T04:10:19.641Z,99.99
2018-07-14T04:11:19.668Z,99.99
2018-07-14T04:12:19.691Z,99.99
2018-07-14T04:13:19.744Z,99.99
2018-07-14T04:14:19.745Z,99.99
2018-07-14T04:15:19.759Z,99.99
2018-07-14T04:16:19.779Z,99.99
2018-07-14T04:17:19.786Z,99.99
2018-07-14T04:18:19.825Z,99.99
2018-07-14T04:19:19.827Z,99.99
2018-07-14T04:20:19.866Z,99.99
2018-07-14T04:21:19.866Z,99.99
2018-07-14T04:22:19.904Z,99.99
2018-07-14T04:23:19.912Z,99.99
2018-07-14T04:24:19.935Z,99.99
2018-07-14T04:25:19.926Z,99.99
2018-07-14T04:26:19.985Z,99.99
2018-07-14T04:27:19.992Z,99.99
2018-07-14T04:28:20.014Z,99.99
2018-07-14T04:29:20.024Z,99.99
2018-07-14T04:30:20.056Z,99.99
2018-07-14T04:31:20.082Z,99.99
2018-07-14T04:32:20.081Z,99.99
2018-07-14T04:33:20.097Z,99.99
2018-07-14T04:34:20.138Z,99.99
2018-07-14T04:35:20.149Z,99.99
2018-07-14T04:36:20.410Z,99.99
2018-07-14T04:37:20.184Z,99.99
2018-07-14T04:38:20.229Z,99.99
2018-07-14T04:39:20.320Z,99.99
2018-07-14T04:40:20.286Z,99.99
2018-07-14T04:41:20.265Z,99.99
2018-07-14T04:42:20.316Z,99.99
2018-07-14T04:43:20.301Z,99.99
2018-07-14T04:44:20.333Z,99.99
2018-07-14T04:45:20.348Z,99.99
2018-07-14T04:46:20.431Z,99.99
2018-07-14T04:47:20.378Z,99.99
2018-07-14T04:48:22.430Z,99.99
2018-07-14T04:49:20.461Z,99.99
2018-07-14T04:50:20.466Z,99.99
2018-07-14T04:51:20.478Z,99.99
2018-07-14T04:52:20.489Z,99.99
2018-07-14T04:53:20.504Z,99.99
2018-07-14T04:54:21.536Z,99.48
2018-07-14T04:55:20.554Z,99.58
2018-07-14T04:56:20.584Z,99.29
2018-07-14T04:57:20.589Z,98.67
2018-07-14T04:58:20.614Z,98.48
2018-07-14T04:59:20.627Z,97.38
2018-07-14T05:00:20.661Z,97.61
2018-07-14T05:01:20.681Z,97.61
2018-07-14T05:02:20.719Z,97.42
2018-07-14T05:03:20.745Z,97.61
2018-07-14T05:04:21.744Z,96.94
2018-07-14T05:05:20.752Z,96.80
2018-07-14T05:06:20.808Z,96.80
2018-07-14T05:07:20.799Z,96.22
2018-07-14T05:08:20.802Z,96.13
2018-07-14T05:09:20.829Z,95.55
2018-07-14T05:10:20.860Z,95.46
2018-07-14T05:11:20.866Z,95.46
2018-07-14T05:12:20.893Z,95.26
2018-07-14T05:13:20.904Z,95.65
2018-07-14T05:14:20.987Z,95.07
2018-07-14T05:15:20.941Z,94.98
2018-07-14T05:16:21.030Z,94.98
2018-07-14T05:17:20.988Z,95.46
2018-07-14T05:18:21.012Z,94.12
2018-07-14T05:19:21.042Z,94.49
2018-07-14T05:20:21.068Z,94.21
2018-07-14T05:21:21.122Z,94.40
2018-07-14T05:22:22.088Z,94.31
2018-07-14T05:23:21.119Z,94.40
2018-07-14T05:24:21.195Z,93.82
2018-07-14T05:25:21.135Z,94.31
2018-07-14T05:26:21.177Z,94.02
2018-07-14T05:27:21.193Z,94.02
2018-07-14T05:28:22.214Z,94.16
2018-07-14T05:29:21.239Z,93.39
2018-07-14T05:30:21.274Z,93.68
2018-07-14T05:31:21.276Z,93.87
2018-07-14T05:32:21.297Z,93.59
2018-07-14T05:33:21.295Z,93.77
2018-07-14T05:34:22.344Z,93.49
2018-07-14T05:35:21.345Z,93.30
2018-07-14T05:36:21.380Z,93.39
2018-07-14T05:37:21.391Z,92.91
2018-07-14T05:38:22.420Z,93.49
2018-07-14T05:39:21.438Z,93.59
2018-07-14T05:40:21.472Z,93.59
2018-07-14T05:41:21.471Z,93.01
2018-07-14T05:42:22.498Z,93.10
2018-07-14T05:43:21.508Z,93.30
2018-07-14T05:44:21.540Z,93.01
2018-07-14T05:45:21.540Z,92.63
2018-07-14T05:46:21.618Z,92.33
2018-07-14T05:47:21.589Z,92.91
2018-07-14T05:48:21.605Z,92.72
2018-07-14T05:49:21.623Z,92.72
2018-07-14T05:50:21.649Z,92.53
2018-07-14T05:51:21.683Z,92.53
2018-07-14T05:52:21.689Z,92.91
2018-07-14T05:53:21.695Z,92.53
2018-07-14T05:54:27.596Z,93.01
2018-07-14T05:55:21.766Z,92.24
2018-07-14T05:56:21.830Z,92.53
2018-07-14T05:57:21.789Z,91.96
2018-07-14T05:58:21.814Z,92.14
2018-07-14T05:59:21.821Z,92.05
2018-07-14T06:00:21.874Z,91.86
2018-07-14T06:01:21.860Z,91.47
2018-07-14T06:02:21.886Z,92.00
2018-07-14T06:03:21.902Z,91.23
2018-07-14T06:04:22.936Z,90.66
2018-07-14T06:05:21.966Z,91.19
2018-07-14T06:06:28.607Z,91.09
2018-07-14T06:07:21.978Z,90.61
2018-07-14T06:08:22.016Z,90.70
2018-07-14T06:09:22.026Z,90.75
2018-07-14T06:10:22.155Z,91.13
2018-07-14T06:11:22.109Z,90.94
2018-07-14T06:12:22.215Z,90.94
2018-07-14T06:13:22.100Z,91.13
2018-07-14T06:14:23.221Z,90.84
2018-07-14T06:15:22.130Z,91.04
2018-07-14T06:16:22.192Z,90.94
2018-07-14T06:17:22.262Z,91.13
2018-07-14T06:18:22.305Z,90.56
2018-07-14T06:19:22.215Z,91.13
2018-07-14T06:20:22.341Z,91.52
2018-07-14T06:21:22.297Z,91.52
2018-07-14T06:22:22.296Z,90.94
2018-07-14T06:23:22.334Z,90.46
2018-07-14T06:24:22.495Z,89.98
2018-07-14T06:25:22.345Z,89.98
2018-07-14T06:26:22.471Z,89.89
2018-07-14T06:27:22.402Z,89.79
2018-07-14T06:28:22.474Z,90.17
2018-07-14T06:29:22.409Z,90.46
2018-07-14T06:30:24.556Z,90.46
2018-07-14T06:31:22.454Z,89.69
2018-07-14T06:32:23.527Z,89.69
2018-07-14T06:33:22.496Z,89.89
2018-07-14T06:34:22.594Z,89.12
2018-07-14T06:35:22.547Z,89.12
2018-07-14T06:36:22.622Z,89.12
2018-07-14T06:37:22.603Z,89.50
2018-07-14T06:38:22.664Z,89.12
2018-07-14T06:39:22.641Z,88.78
2018-07-14T06:40:22.645Z,89.16
2018-07-14T06:41:22.649Z,88.59
2018-07-14T06:42:22.763Z,88.39
2018-07-14T06:43:22.678Z,87.82
2018-07-14T06:44:22.778Z,88.06
2018-07-14T06:45:22.726Z,88.49
2018-07-14T06:46:22.786Z,88.10
2018-07-14T06:47:22.774Z,87.82
2018-07-14T06:48:23.855Z,87.82
2018-07-14T06:49:22.807Z,87.24
2018-07-14T06:50:22.920Z,87.76
2018-07-14T06:51:22.869Z,87.19
2018-07-14T06:52:22.881Z,86.71
2018-07-14T06:53:22.910Z,87.19
2018-07-14T06:54:25.012Z,86.90
2018-07-14T06:55:22.926Z,86.71
2018-07-14T06:56:23.063Z,86.71
2018-07-14T06:57:22.982Z,86.04
2018-07-14T06:58:23.078Z,86.13
2018-07-14T06:59:23.018Z,86.04
2018-07-14T07:00:23.091Z,86.32
2018-07-14T07:01:23.052Z,85.75
2018-07-14T07:02:23.089Z,85.65
2018-07-14T07:03:23.137Z,85.75
2018-07-14T07:04:24.140Z,85.84
2018-07-14T07:05:23.158Z,85.84
2018-07-14T07:06:24.282Z,86.04
2018-07-14T07:07:23.156Z,85.98
2018-07-14T07:08:24.266Z,85.60
2018-07-14T07:09:23.214Z,85.40
2018-07-14T07:10:24.280Z,85.69
2018-07-14T07:11:23.248Z,85.40
2018-07-14T07:12:23.361Z,85.78
2018-07-14T07:13:23.299Z,85.21
2018-07-14T07:14:23.381Z,85.11
2018-07-14T07:15:23.335Z,85.60
2018-07-14T07:16:23.394Z,84.92
2018-07-14T07:17:23.360Z,85.31
2018-07-14T07:18:24.464Z,85.78
2018-07-14T07:19:23.401Z,85.69
2018-07-14T07:20:23.528Z,85.21
2018-07-14T07:21:23.521Z,84.16
2018-07-14T07:22:24.563Z,85.02
2018-07-14T07:23:23.488Z,85.02
2018-07-14T07:24:23.548Z,84.73
2018-07-14T07:25:23.514Z,85.21
2018-07-14T07:26:24.592Z,85.02
2018-07-14T07:27:23.555Z,84.92
2018-07-14T07:28:23.672Z,84.63
2018-07-14T07:29:23.598Z,84.54
2018-07-14T07:30:23.696Z,84.83
2018-07-14T07:31:23.646Z,84.34
2018-07-14T07:32:23.711Z,84.63
2018-07-14T07:33:23.677Z,84.92
2018-07-14T07:34:23.752Z,84.25
2018-07-14T07:35:23.715Z,84.34
2018-07-14T07:36:25.797Z,84.16
2018-07-14T07:37:23.771Z,84.39
2018-07-14T07:38:23.838Z,84.29
2018-07-14T07:39:23.803Z,84.00
2018-07-14T07:40:24.879Z,84.10
2018-07-14T07:41:23.818Z,84.06
2018-07-14T07:42:24.008Z,83.96
2018-07-14T07:43:24.031Z,83.96
2018-07-14T07:44:23.918Z,84.19
2018-07-14T07:45:23.904Z,84.06
2018-07-14T07:46:24.002Z,84.19
2018-07-14T07:47:23.952Z,84.10
2018-07-14T07:48:24.028Z,83.91
2018-07-14T07:49:23.974Z,84.39
2018-07-14T07:50:24.124Z,83.81
2018-07-14T07:51:24.031Z,83.62
2018-07-14T07:52:24.055Z,83.72
2018-07-14T07:53:24.144Z,83.62
2018-07-14T07:54:24.115Z,83.52
2018-07-14T07:55:24.166Z,83.14
2018-07-14T07:56:24.140Z,82.94
2018-07-14T07:57:24.178Z,82.94
2018-07-14T07:58:24.201Z,82.94
2018-07-14T07:59:24.284Z,82.27
2018-07-14T08:00:24.202Z,83.04
2018-07-14T08:01:24.313Z,82.27
2018-07-14T08:02:24.263Z,82.46
2018-07-14T08:03:24.328Z,82.94
2018-07-14T08:04:24.281Z,82.94
2018-07-14T08:05:25.324Z,82.85
2018-07-14T08:06:24.350Z,82.65
2018-07-14T08:07:24.366Z,82.94
2018-07-14T08:08:25.454Z,82.56
2018-07-14T08:09:24.395Z,81.98
2018-07-14T08:10:24.478Z,81.98
2018-07-14T08:11:24.431Z,81.88
2018-07-14T08:12:25.520Z,82.21
2018-07-14T08:13:24.472Z,81.70
2018-07-14T08:14:24.511Z,81.30
2018-07-14T08:15:24.513Z,81.30
2018-07-14T08:16:24.547Z,81.60
2018-07-14T08:17:24.541Z,80.83
2018-07-14T08:18:24.583Z,80.63
2018-07-14T08:19:24.604Z,80.48
2018-07-14T08:20:24.609Z,80.96
2018-07-14T08:21:24.631Z,80.96
2018-07-14T08:22:24.661Z,80.87
2018-07-14T08:23:24.802Z,80.38
2018-07-14T08:24:24.685Z,80.00
2018-07-14T08:25:24.709Z,80.19
2018-07-14T08:26:24.729Z,80.00
2018-07-14T08:27:24.734Z,80.10
2018-07-14T08:28:24.774Z,80.68
2018-07-14T08:29:24.790Z,80.58
2018-07-14T08:30:24.825Z,80.29
2018-07-14T08:31:24.821Z,79.43
2018-07-14T08:32:24.872Z,80.38
2018-07-14T08:33:24.871Z,80.38
2018-07-14T08:34:24.891Z,80.29
2018-07-14T08:35:24.896Z,80.00
2018-07-14T08:36:24.948Z,80.19
2018-07-14T08:37:24.935Z,79.81
2018-07-14T08:38:25.986Z,79.85
2018-07-14T08:39:24.980Z,79.08
2018-07-14T08:40:25.028Z,79.17
2018-07-14T08:41:25.032Z,78.88
2018-07-14T08:42:25.060Z,78.40
2018-07-14T08:43:25.061Z,78.50
2018-07-14T08:44:25.137Z,78.02
2018-07-14T08:45:25.112Z,77.83
2018-07-14T08:46:25.150Z,77.15
2018-07-14T08:47:25.142Z,76.96
2018-07-14T08:48:26.380Z,77.25
2018-07-14T08:49:25.185Z,77.25
2018-07-14T08:50:25.283Z,77.44
2018-07-14T08:51:25.312Z,77.63
2018-07-14T08:52:25.279Z,77.44
2018-07-14T08:53:25.290Z,77.44
2018-07-14T08:54:25.394Z,77.44
2018-07-14T08:55:25.307Z,77.73
2018-07-14T08:56:25.360Z,77.58
2018-07-14T08:57:25.346Z,77.67
2018-07-14T08:58:25.394Z,77.00
2018-07-14T08:59:25.394Z,77.28
2018-07-14T09:00:25.419Z,77.09
2018-07-14T09:01:25.440Z,77.38
2018-07-14T09:02:25.522Z,77.09
2018-07-14T09:03:25.472Z,76.90
2018-07-14T09:04:25.524Z,76.90
2018-07-14T09:05:25.504Z,76.32
2018-07-14T09:06:25.600Z,76.80
2018-07-14T09:07:25.544Z,77.00
2018-07-14T09:08:26.708Z,76.61
2018-07-14T09:09:25.620Z,76.61
2018-07-14T09:10:25.668Z,76.03
2018-07-14T09:11:25.665Z,76.23
2018-07-14T09:12:25.696Z,76.90
2018-07-14T09:13:25.967Z,76.32
2018-07-14T09:14:25.802Z,76.42
2018-07-14T09:15:25.713Z,76.84
2018-07-14T09:16:25.865Z,76.07
2018-07-14T09:17:25.767Z,76.03
2018-07-14T09:18:25.839Z,75.84
2018-07-14T09:19:25.808Z,76.03
2018-07-14T09:20:25.833Z,76.32
2018-07-14T09:21:26.052Z,76.36
2018-07-14T09:22:25.855Z,76.45
2018-07-14T09:23:25.973Z,76.17
2018-07-14T09:24:25.908Z,74.82
2018-07-14T09:25:25.991Z,74.91
2018-07-14T09:26:25.944Z,75.30
2018-07-14T09:27:25.992Z,75.49
2018-07-14T09:28:25.982Z,75.49
2018-07-14T09:29:26.133Z,74.72
2018-07-14T09:30:26.023Z,74.47
2018-07-14T09:31:26.149Z,74.52
2018-07-14T09:32:26.077Z,75.05
2018-07-14T09:33:26.147Z,74.57
2018-07-14T09:34:26.091Z,74.85
2018-07-14T09:35:26.160Z,74.47
2018-07-14T09:36:26.164Z,73.83
2018-07-14T09:37:26.152Z,73.50
2018-07-14T09:38:26.300Z,74.21
2018-07-14T09:39:26.231Z,73.41
2018-07-14T09:40:26.274Z,73.50
2018-07-14T09:41:26.254Z,73.93
2018-07-14T09:42:26.278Z,73.50
2018-07-14T09:43:26.282Z,73.25
2018-07-14T09:44:26.443Z,73.44
2018-07-14T09:45:26.346Z,73.54
2018-07-14T09:46:26.349Z,72.96
2018-07-14T09:47:26.399Z,73.25
2018-07-14T09:48:26.404Z,73.44
2018-07-14T09:49:26.415Z,73.25
2018-07-14T09:50:26.446Z,72.86
2018-07-14T09:51:26.462Z,73.28
2018-07-14T09:52:26.474Z,73.28
2018-07-14T09:53:26.506Z,72.52
2018-07-14T09:54:26.525Z,72.32
2018-07-14T09:55:26.549Z,72.71
2018-07-14T09:56:26.585Z,72.13
2018-07-14T09:57:26.576Z,72.36
2018-07-14T09:58:26.608Z,72.26
2018-07-14T09:59:26.661Z,71.00
2018-07-14T10:00:26.678Z,70.84
2018-07-14T10:01:26.745Z,70.36
2018-07-14T10:02:26.696Z,70.17
2018-07-14T10:03:26.720Z,69.59
2018-07-14T10:04:26.756Z,69.40
2018-07-14T10:05:26.755Z,69.17
2018-07-14T10:06:26.776Z,69.68
2018-07-14T10:07:26.802Z,69.88
2018-07-14T10:08:26.810Z,69.68
2018-07-14T10:09:26.854Z,70.17
2018-07-14T10:10:26.858Z,69.20
2018-07-14T10:11:26.886Z,68.91
2018-07-14T10:12:26.905Z,68.62
2018-07-14T10:13:26.956Z,68.72
2018-07-14T10:14:26.952Z,68.72
2018-07-14T10:15:27.026Z,68.43
2018-07-14T10:16:26.994Z,69.40
2018-07-14T10:17:27.089Z,69.68
2018-07-14T10:18:27.035Z,69.26
2018-07-14T10:19:27.050Z,69.46
2018-07-14T10:20:27.066Z,69.84
2018-07-14T10:21:27.121Z,69.84
2018-07-14T10:22:27.107Z,69.65
2018-07-14T10:23:27.142Z,70.14
2018-07-14T10:24:27.161Z,69.65
2018-07-14T10:25:27.202Z,69.68
2018-07-14T10:26:27.217Z,69.30
2018-07-14T10:27:27.206Z,68.82
2018-07-14T10:28:27.239Z,68.82
2018-07-14T10:29:27.266Z,68.91
2018-07-14T10:30:27.300Z,69.78
2018-07-14T10:31:27.301Z,70.07
2018-07-14T10:32:27.329Z,68.72
2018-07-14T10:33:32.322Z,67.94
2018-07-14T10:34:27.362Z,68.14
2018-07-14T10:35:27.488Z,68.72
2018-07-14T10:36:27.415Z,68.85
2018-07-14T10:37:27.495Z,67.88
2018-07-14T10:38:27.459Z,67.98
2018-07-14T10:39:27.522Z,67.01
2018-07-14T10:40:27.499Z,66.82
2018-07-14T10:41:27.528Z,67.30
2018-07-14T10:42:27.591Z,66.91
2018-07-14T10:43:27.597Z,67.11
2018-07-14T10:44:27.597Z,66.82
2018-07-14T10:45:27.722Z,66.78
2018-07-14T10:46:27.620Z,67.46
2018-07-14T10:47:27.719Z,68.17
2018-07-14T10:48:27.677Z,67.59
2018-07-14T10:49:27.732Z,67.21
2018-07-14T10:50:27.736Z,67.14
2018-07-14T10:51:27.844Z,66.37
2018-07-14T10:52:27.811Z,66.37
2018-07-14T10:53:27.868Z,66.37
2018-07-14T10:54:27.816Z,66.08
2018-07-14T10:55:28.948Z,66.17
2018-07-14T10:56:27.863Z,65.98
2018-07-14T10:57:27.930Z,66.47
2018-07-14T10:58:27.875Z,66.08
2018-07-14T10:59:29.002Z,65.98
2018-07-14T11:00:27.963Z,66.37
2018-07-14T11:01:27.961Z,65.69
2018-07-14T11:02:27.979Z,65.40
2018-07-14T11:03:28.007Z,65.59
2018-07-14T11:04:28.093Z,66.05
2018-07-14T11:05:28.035Z,66.63
2018-07-14T11:06:28.090Z,66.91
2018-07-14T11:07:28.109Z,66.63
2018-07-14T11:08:28.113Z,66.43
2018-07-14T11:09:28.154Z,66.43
2018-07-14T11:10:28.178Z,66.24
2018-07-14T11:11:28.367Z,66.66
2018-07-14T11:12:28.201Z,66.08
2018-07-14T11:13:28.359Z,66.27
2018-07-14T11:14:28.234Z,66.47
2018-07-14T11:15:28.372Z,66.47
2018-07-14T11:16:28.280Z,66.47
2018-07-14T11:17:28.500Z,65.98
2018-07-14T11:18:28.541Z,66.08
2018-07-14T11:19:28.519Z,65.72
2018-07-14T11:20:28.390Z,65.11
2018-07-14T11:21:28.456Z,66.02
2018-07-14T11:22:28.425Z,65.82
2018-07-14T11:23:28.531Z,65.05
2018-07-14T11:24:28.481Z,64.85
2018-07-14T11:25:28.502Z,64.95
2018-07-14T11:26:28.616Z,64.98
2018-07-14T11:27:28.553Z,64.20
2018-07-14T11:28:28.563Z,63.79
2018-07-14T11:29:28.589Z,64.01
2018-07-14T11:30:28.602Z,64.30
2018-07-14T11:31:28.630Z,63.62
2018-07-14T11:32:28.650Z,63.62
2018-07-14T11:33:28.678Z,62.75
2018-07-14T11:34:28.746Z,62.66
2018-07-14T11:35:28.715Z,62.75
2018-07-14T11:36:28.739Z,62.98
2018-07-14T11:37:28.766Z,62.30
2018-07-14T11:38:28.783Z,62.79
2018-07-14T11:39:28.791Z,63.07
2018-07-14T11:40:28.897Z,62.66
2018-07-14T11:41:28.872Z,63.62
2018-07-14T11:42:28.914Z,63.92
2018-07-14T11:43:28.902Z,63.53
2018-07-14T11:44:29.037Z,64.01
2018-07-14T11:45:28.924Z,63.92
2018-07-14T11:46:29.030Z,63.53
2018-07-14T11:47:29.009Z,63.59
2018-07-14T11:48:29.037Z,64.07
2018-07-14T11:49:29.031Z,64.17
2018-07-14T11:50:29.158Z,63.98
2018-07-14T11:51:29.061Z,64.47
2018-07-14T11:52:29.169Z,64.07
2018-07-14T11:53:29.110Z,63.89
2018-07-14T11:54:29.216Z,63.53
2018-07-14T11:55:29.157Z,63.82
2018-07-14T11:56:29.309Z,63.43
2018-07-14T11:57:29.224Z,62.95
2018-07-14T11:58:29.313Z,62.66
2018-07-14T11:59:29.245Z,63.14
2018-07-14T12:00:29.348Z,62.75
2018-07-14T12:01:29.344Z,62.56
2018-07-14T12:02:29.345Z,62.37
2018-07-14T12:03:29.344Z,62.75
2018-07-14T12:04:29.454Z,62.75
2018-07-14T12:05:29.403Z,62.17
2018-07-14T12:06:29.487Z,62.30
2018-07-14T12:07:29.451Z,62.20
2018-07-14T12:08:29.482Z,61.43
2018-07-14T12:09:29.487Z,61.04
2018-07-14T12:10:29.595Z,61.33
2018-07-14T12:11:29.526Z,61.43
2018-07-14T12:12:29.620Z,62.04
2018-07-14T12:13:29.647Z,61.36
2018-07-14T12:14:29.626Z,61.07
2018-07-14T12:15:29.646Z,61.88
2018-07-14T12:16:29.740Z,60.52
2018-07-14T12:17:29.666Z,58.70
2018-07-14T12:18:30.785Z,58.09
2018-07-14T12:19:29.724Z,57.70
2018-07-14T12:20:29.763Z,58.48
2018-07-14T12:21:29.751Z,58.80
2018-07-14T12:22:30.922Z,58.93
2018-07-14T12:23:29.804Z,57.67
2018-07-14T12:24:29.885Z,56.50
2018-07-14T12:25:29.860Z,55.63
2018-07-14T12:26:29.904Z,55.33
2018-07-14T12:27:29.886Z,55.04
2018-07-14T12:28:30.958Z,55.33
2018-07-14T12:29:29.943Z,54.85
2018-07-14T12:30:30.083Z,54.75
2018-07-14T12:31:30.018Z,54.94
2018-07-14T12:32:31.091Z,55.33
2018-07-14T12:33:30.044Z,56.09
2018-07-14T12:34:30.158Z,56.40
2018-07-14T12:35:30.066Z,56.67
2018-07-14T12:36:30.203Z,56.86
2018-07-14T12:37:30.139Z,56.47
2018-07-14T12:38:30.193Z,57.08
2018-07-14T12:39:30.174Z,56.11
2018-07-14T12:40:30.322Z,55.50
2018-07-14T12:41:30.216Z,55.41
2018-07-14T12:42:31.354Z,55.87
2018-07-14T12:43:30.301Z,56.25
2018-07-14T12:44:30.319Z,56.45
2018-07-14T12:45:30.306Z,56.35
2018-07-14T12:46:30.361Z,56.15
2018-07-14T12:47:30.370Z,56.25
2018-07-14T12:48:30.462Z,56.64
2018-07-14T12:49:30.402Z,56.54
2018-07-14T12:50:31.551Z,56.90
2018-07-14T12:51:30.460Z,56.25
2018-07-14T12:52:30.509Z,56.90